Time;durP1;ratioP1;P1;durP2;ratioP2;P2;SDS_P1;SDS_P2;PMS_P1;PMS_P2;Temp;Humidity;BMP_temperature;BMP_pressure;BME280_temperature;BME280_humidity;BME280_pressure;Samples;Min_cycle;Max_cycle;Signal;HPM_P1;HPM_P2
2021/12/22 00:00:47;;;;;;;4.90;4.20;;;1.80;52.20;;;;;;5071019;28;20227;-86
2021/12/22 00:03:17;;;;;;;13.32;5.32;;;1.80;47.40;;;;;;5056220;28;20208;-87
2021/12/22 00:05:48;;;;;;;10.55;5.82;;;1.80;53.80;;;;;;5063148;28;20696;-86
2021/12/22 00:08:17;;;;;;;9.45;4.53;;;1.80;51.20;;;;;;5053806;28;20212;-86
2021/12/22 00:10:49;;;;;;;7.85;5.47;;;1.80;44.00;;;;;;5063110;28;20268;-86
2021/12/22 00:13:19;;;;;;;7.32;5.45;;;1.80;41.60;;;;;;5065354;28;20210;-86
2021/12/22 00:15:47;;;;;;;7.65;5.68;;;2.00;41.30;;;;;;5065654;28;20284;-87
2021/12/22 00:18:16;;;;;;;11.25;7.85;;;1.80;42.10;;;;;;5062734;28;20211;-87
2021/12/22 00:20:45;;;;;;;13.20;10.77;;;1.80;45.80;;;;;;5062302;28;20320;-87
2021/12/22 00:23:13;;;;;;;12.18;7.85;;;1.90;49.90;;;;;;5053534;28;20205;-87
2021/12/22 00:25:41;;;;;;;9.88;7.32;;;2.20;44.90;;;;;;5058460;28;20223;-88
2021/12/22 00:28:09;;;;;;;12.65;7.05;;;1.90;43.60;;;;;;5053315;28;20208;-87
2021/12/22 00:30:40;;;;;;;12.93;8.35;;;1.90;43.50;;;;;;5060119;28;20228;-88
2021/12/22 00:33:10;;;;;;;10.20;6.80;;;1.90;42.20;;;;;;5058208;28;20296;-88
2021/12/22 00:35:42;;;;;;;12.65;8.13;;;1.80;41.10;;;;;;5063216;28;20208;-87
2021/12/22 00:38:12;;;;;;;11.88;7.57;;;1.80;38.70;;;;;;5063678;28;20207;-86
2021/12/22 00:40:42;;;;;;;13.40;6.78;;;1.70;37.20;;;;;;5064144;28;20224;-86
2021/12/22 00:43:11;;;;;;;6.65;4.90;;;1.70;36.90;;;;;;5063168;28;20207;-87
2021/12/22 00:45:41;;;;;;;8.90;5.97;;;1.70;37.70;;;;;;5076161;28;20219;-87
2021/12/22 00:48:12;;;;;;;8.82;5.90;;;1.70;37.80;;;;;;5042988;28;20244;-88
2021/12/22 00:50:41;;;;;;;9.43;5.82;;;1.80;36.10;;;;;;5074760;28;20234;-87
2021/12/22 00:53:09;;;;;;;9.20;5.05;;;1.60;36.10;;;;;;5063094;28;20301;-87
2021/12/22 00:55:38;;;;;;;6.93;6.22;;;1.70;37.40;;;;;;5063891;28;20613;-87
2021/12/22 00:58:06;;;;;;;8.77;5.00;;;1.60;38.40;;;;;;5067429;28;20199;-87
2021/12/22 01:00:35;;;;;;;8.32;4.72;;;1.80;36.70;;;;;;5060746;28;20242;-87
2021/12/22 01:03:05;;;;;;;7.82;5.35;;;1.60;34.70;;;;;;5063157;28;20269;-87
2021/12/22 01:05:33;;;;;;;10.65;5.30;;;1.70;34.40;;;;;;5060299;28;20205;-87
2021/12/22 01:08:02;;;;;;;6.78;5.00;;;1.80;36.70;;;;;;5072546;28;20209;-86
2021/12/22 01:10:31;;;;;;;10.10;6.45;;;1.60;34.20;;;;;;5063024;28;20248;-86
2021/12/22 01:13:01;;;;;;;6.15;5.45;;;1.80;34.20;;;;;;5068602;28;20209;-84
2021/12/22 01:15:30;;;;;;;8.32;6.00;;;1.50;32.90;;;;;;5059682;28;20204;-88
2021/12/22 01:18:04;;;;;;;10.48;6.03;;;1.50;33.40;;;;;;5055811;28;20204;-85
2021/12/22 01:20:39;;;;;;;10.60;6.57;;;1.50;34.00;;;;;;5063367;28;20713;-87
2021/12/22 01:23:08;;;;;;;9.95;6.05;;;1.70;33.20;;;;;;5062104;28;20215;-86
2021/12/22 01:25:42;;;;;;;9.65;7.00;;;1.40;31.90;;;;;;5063097;28;20197;-87
2021/12/22 01:28:11;;;;;;;11.07;6.60;;;1.40;31.20;;;;;;5058992;28;20203;-87
2021/12/22 01:30:43;;;;;;;20.52;6.28;;;1.40;33.20;;;;;;5078607;28;20247;-87
2021/12/22 01:33:13;;;;;;;9.55;5.28;;;1.30;33.80;;;;;;5074292;28;20210;-86
2021/12/22 01:35:44;;;;;;;9.95;7.13;;;1.30;33.00;;;;;;5062612;28;20203;-87
2021/12/22 01:38:12;;;;;;;13.50;6.93;;;1.30;33.60;;;;;;5062261;28;20203;-87
2021/12/22 01:40:44;;;;;;;11.05;6.75;;;1.30;34.90;;;;;;5058702;28;20231;-86
2021/12/22 01:43:15;;;;;;;9.43;6.03;;;1.30;49.00;;;;;;5060141;28;20287;-87
2021/12/22 01:46:09;;;;;;;12.88;7.15;;;1.40;40.30;;;;;;5060660;28;20204;-87
2021/12/22 01:51:35;;;;;;;7.45;5.80;;;1.50;41.60;;;;;;5044675;28;20321;-87
2021/12/22 01:54:08;;;;;;;9.27;6.43;;;1.50;42.10;;;;;;5069217;28;20205;-86
2021/12/22 01:56:36;;;;;;;6.97;6.13;;;1.50;39.70;;;;;;5063254;28;20198;-88
2021/12/22 01:59:07;;;;;;;7.45;4.85;;;1.70;37.40;;;;;;5061942;28;20217;-87
2021/12/22 02:01:36;;;;;;;6.88;5.00;;;1.40;37.70;;;;;;5044172;28;20266;-86
2021/12/22 02:04:10;;;;;;;12.20;5.53;;;1.40;35.60;;;;;;5061675;28;20580;-86
2021/12/22 02:06:42;;;;;;;10.98;6.05;;;1.30;33.50;;;;;;5061945;28;20311;-85
2021/12/22 02:09:29;;;;;;;9.57;5.30;;;1.30;32.00;;;;;;5061128;28;20219;-87
2021/12/22 02:11:57;;;;;;;6.90;5.28;;;1.30;32.10;;;;;;5065957;28;20723;-87
2021/12/22 02:14:25;;;;;;;6.15;5.53;;;1.60;31.10;;;;;;5065034;28;20226;-86
2021/12/22 02:16:54;;;;;;;10.68;6.25;;;1.20;31.40;;;;;;5056668;28;20288;-87
2021/12/22 02:19:22;;;;;;;7.88;5.50;;;1.20;29.30;;;;;;5043593;28;20233;-86
2021/12/22 02:21:56;;;;;;;7.63;5.65;;;1.20;29.30;;;;;;5064966;28;20227;-87
2021/12/22 02:24:24;;;;;;;7.78;6.05;;;1.20;30.70;;;;;;5063534;28;20236;-86
2021/12/22 02:27:00;;;;;;;11.15;6.68;;;1.20;31.50;;;;;;5061916;28;20767;-86
2021/12/22 02:29:36;;;;;;;8.63;5.13;;;1.20;30.00;;;;;;5053673;28;20197;-85
2021/12/22 02:32:12;;;;;;;6.35;5.45;;;1.20;29.50;;;;;;5070203;28;20273;-85
2021/12/22 02:34:43;;;;;;;8.60;6.18;;;1.20;28.90;;;;;;5073228;28;20211;-85
2021/12/22 02:37:16;;;;;;;8.85;6.05;;;1.10;28.00;;;;;;5049007;28;20498;-86
2021/12/22 02:39:51;;;;;;;9.18;5.22;;;1.10;28.60;;;;;;5036456;28;20219;-86
2021/12/22 02:42:23;;;;;;;10.95;6.00;;;1.30;27.80;;;;;;5065317;28;20265;-85
2021/12/22 02:44:51;;;;;;;8.32;6.03;;;1.00;28.10;;;;;;5052773;28;20205;-86
2021/12/22 02:47:21;;;;;;;8.93;6.57;;;1.30;27.20;;;;;;5059889;28;20227;-84
2021/12/22 02:49:50;;;;;;;9.48;5.82;;;1.00;26.80;;;;;;5059924;28;20221;-86
2021/12/22 02:52:19;;;;;;;8.13;6.70;;;1.00;26.60;;;;;;5066199;28;20854;-86
2021/12/22 02:54:53;;;;;;;7.55;5.00;;;1.00;27.10;;;;;;5073577;28;20218;-86
2021/12/22 02:57:28;;;;;;;11.43;6.32;;;1.00;27.80;;;;;;5069145;28;20220;-86
2021/12/22 03:00:26;;;;;;;5.53;5.00;;;1.00;27.90;;;;;;5064571;28;20198;-86
2021/12/22 03:03:07;;;;;;;14.10;6.55;;;0.90;26.20;;;;;;5063426;28;20201;-87
2021/12/22 03:05:37;;;;;;;11.20;6.45;;;1.00;25.60;;;;;;5062791;28;20202;-87
2021/12/22 03:08:07;;;;;;;9.07;5.70;;;0.90;25.80;;;;;;5036071;28;20716;-86
2021/12/22 03:10:36;;;;;;;13.10;6.00;;;0.90;25.30;;;;;;5075240;28;20226;-86
2021/12/22 03:13:05;;;;;;;8.23;5.93;;;1.20;25.90;;;;;;5070541;28;20204;-86
2021/12/22 03:15:33;;;;;;;9.10;5.22;;;0.90;26.00;;;;;;5052432;28;20627;-85
2021/12/22 03:18:03;;;;;;;8.55;6.18;;;0.90;25.60;;;;;;5056182;28;20202;-86
2021/12/22 03:20:31;;;;;;;13.50;7.15;;;0.90;24.80;;;;;;5065628;28;20283;-87
2021/12/22 03:23:00;;;;;;;12.38;7.53;;;1.10;25.80;;;;;;5076412;28;20205;-86
2021/12/22 03:25:29;;;;;;;9.63;6.47;;;0.80;25.60;;;;;;5056821;28;20203;-85
2021/12/22 03:28:02;;;;;;;9.82;5.45;;;0.90;25.60;;;;;;5072534;28;20237;-84
2021/12/22 03:30:32;;;;;;;8.27;6.38;;;0.90;26.00;;;;;;5064297;28;20224;-83
2021/12/22 03:33:00;;;;;;;14.57;6.43;;;0.80;24.20;;;;;;5055924;28;20202;-83
2021/12/22 03:35:28;;;;;;;10.90;6.97;;;0.80;26.30;;;;;;5072331;28;20594;-82
2021/12/22 03:37:58;;;;;;;10.32;7.57;;;1.10;26.00;;;;;;5078698;28;20213;-86
2021/12/22 03:40:28;;;;;;;10.10;6.47;;;0.80;24.60;;;;;;5079530;28;20286;-85
2021/12/22 03:42:57;;;;;;;9.00;5.90;;;1.10;24.60;;;;;;5062168;28;20214;-85
2021/12/22 03:45:26;;;;;;;11.50;6.75;;;0.80;24.60;;;;;;5060221;28;20231;-86
2021/12/22 03:47:54;;;;;;;14.50;7.32;;;1.00;23.30;;;;;;5046680;28;20228;-86
2021/12/22 03:50:23;;;;;;;14.05;7.18;;;1.10;23.90;;;;;;5042594;28;20606;-86
2021/12/22 03:52:51;;;;;;;9.73;7.40;;;1.10;26.70;;;;;;5061785;28;20682;-84
2021/12/22 03:55:19;;;;;;;9.55;6.03;;;0.80;25.10;;;;;;5045767;28;20231;-86
2021/12/22 03:57:50;;;;;;;12.80;7.38;;;0.80;27.50;;;;;;5070954;28;20209;-86
2021/12/22 04:00:18;;;;;;;10.38;6.13;;;1.10;32.40;;;;;;5068044;28;20365;-87
2021/12/22 04:02:47;;;;;;;10.63;7.25;;;0.90;27.20;;;;;;5057547;28;20204;-87
2021/12/22 04:05:17;;;;;;;11.38;6.68;;;0.80;25.70;;;;;;5063845;28;20210;-85
2021/12/22 04:07:45;;;;;;;8.40;6.72;;;0.80;26.00;;;;;;5065313;28;20231;-85
2021/12/22 04:10:21;;;;;;;9.27;6.68;;;0.80;27.80;;;;;;5064152;28;20219;-85
2021/12/22 04:12:53;;;;;;;14.05;7.20;;;0.80;24.50;;;;;;5063683;28;20215;-83
2021/12/22 04:15:23;;;;;;;10.40;7.05;;;0.80;24.60;;;;;;5044104;28;20693;-86
2021/12/22 04:17:52;;;;;;;10.57;6.57;;;0.80;24.70;;;;;;5076428;28;20212;-85
2021/12/22 04:20:20;;;;;;;8.75;6.07;;;0.70;23.20;;;;;;5065429;28;20235;-86
2021/12/22 04:22:48;;;;;;;10.48;6.60;;;0.70;24.60;;;;;;5081712;28;20209;-87
2021/12/22 04:25:20;;;;;;;9.75;6.80;;;0.70;23.50;;;;;;5077205;28;20213;-85
2021/12/22 04:27:51;;;;;;;7.72;6.25;;;0.90;25.40;;;;;;5062302;28;20209;-85
2021/12/22 04:30:20;;;;;;;11.45;6.68;;;0.80;23.90;;;;;;5062493;28;20444;-85
2021/12/22 04:32:48;;;;;;;11.85;7.22;;;0.60;25.00;;;;;;5084552;28;20216;-84
2021/12/22 04:35:17;;;;;;;10.00;6.63;;;0.70;23.70;;;;;;5089751;28;20204;-84
2021/12/22 04:37:45;;;;;;;7.32;6.13;;;0.60;21.90;;;;;;5074286;28;20200;-85
2021/12/22 04:40:14;;;;;;;13.77;7.80;;;0.50;22.90;;;;;;5066008;28;20233;-85
2021/12/22 04:42:42;;;;;;;12.27;6.47;;;0.80;23.00;;;;;;5081767;28;20744;-85
2021/12/22 04:45:13;;;;;;;6.22;5.63;;;0.60;22.90;;;;;;5070786;28;20214;-84
2021/12/22 04:47:41;;;;;;;11.60;6.65;;;0.60;23.40;;;;;;5052387;28;20223;-85
2021/12/22 04:50:16;;;;;;;12.80;6.80;;;0.60;24.80;;;;;;5064093;28;20242;-84
2021/12/22 04:52:53;;;;;;;9.70;6.50;;;0.60;24.40;;;;;;5069766;28;20219;-86
2021/12/22 04:55:22;;;;;;;12.82;9.10;;;0.60;24.10;;;;;;5066714;28;20213;-86
2021/12/22 04:57:50;;;;;;;11.85;7.75;;;0.80;24.20;;;;;;5063464;28;20201;-84
2021/12/22 05:00:22;;;;;;;10.07;6.75;;;0.60;24.30;;;;;;5066182;28;20806;-85
2021/12/22 05:02:51;;;;;;;8.25;6.00;;;0.60;26.20;;;;;;5048058;28;20221;-85
2021/12/22 05:05:19;;;;;;;11.00;7.47;;;0.60;25.10;;;;;;5062568;28;20678;-86
2021/12/22 05:07:48;;;;;;;9.75;6.78;;;0.60;25.10;;;;;;5053359;28;20208;-86
2021/12/22 05:10:18;;;;;;;9.38;6.25;;;0.60;24.60;;;;;;5060228;28;20739;-84
2021/12/22 05:12:47;;;;;;;9.68;5.90;;;0.60;25.10;;;;;;5068393;28;20206;-85
2021/12/22 05:15:19;;;;;;;12.15;7.03;;;0.60;25.60;;;;;;5063698;28;20210;-84
2021/12/22 05:18:20;;;;;;;10.23;6.20;;;0.60;26.80;;;;;;5045586;28;20742;-84
2021/12/22 05:20:49;;;;;;;10.18;6.50;;;0.80;25.20;;;;;;5049913;28;20799;-84
2021/12/22 05:23:20;;;;;;;8.30;6.65;;;0.70;22.90;;;;;;5046351;28;20723;-84
2021/12/22 05:25:48;;;;;;;11.70;7.47;;;0.60;22.60;;;;;;5046083;28;20244;-83
2021/12/22 05:28:16;;;;;;;11.65;5.85;;;0.60;23.90;;;;;;5064463;28;20850;-85
2021/12/22 05:30:47;;;;;;;12.30;6.95;;;0.50;38.10;;;;;;5062377;28;20441;-78
2021/12/22 05:33:16;;;;;;;18.25;7.50;;;0.50;24.50;;;;;;5062529;28;20637;-87
2021/12/22 05:35:45;;;;;;;13.60;6.60;;;0.40;25.50;;;;;;5062053;28;20213;-86
2021/12/22 05:38:13;;;;;;;10.55;6.88;;;0.50;25.30;;;;;;5065768;28;20911;-84
2021/12/22 05:40:42;;;;;;;13.13;8.18;;;0.40;23.20;;;;;;5059551;28;20829;-86
2021/12/22 05:43:10;;;;;;;9.07;6.82;;;0.40;24.10;;;;;;5056267;28;20209;-86
2021/12/22 05:45:39;;;;;;;9.15;6.82;;;0.40;25.00;;;;;;5044329;28;20247;-87
2021/12/22 05:48:07;;;;;;;10.68;7.80;;;0.40;26.40;;;;;;5052673;28;20300;-87
2021/12/22 05:50:37;;;;;;;13.90;6.82;;;0.50;25.80;;;;;;5065496;28;20221;-86
2021/12/22 05:53:05;;;;;;;11.90;7.47;;;0.50;26.30;;;;;;5061447;28;20229;-87
2021/12/22 05:55:34;;;;;;;10.65;6.78;;;0.50;25.60;;;;;;5060826;28;20207;-87
2021/12/22 05:58:02;;;;;;;12.13;7.60;;;0.50;25.50;;;;;;5061220;28;20217;-85
2021/12/22 06:00:30;;;;;;;8.98;7.10;;;0.40;25.00;;;;;;5068815;28;20238;-82
2021/12/22 06:02:59;;;;;;;12.15;6.93;;;0.70;26.00;;;;;;5058515;28;20588;-82
2021/12/22 06:05:27;;;;;;;9.73;5.70;;;0.40;26.40;;;;;;5042094;28;20529;-82
2021/12/22 06:07:57;;;;;;;17.40;6.97;;;0.50;24.80;;;;;;5059528;28;20740;-82
2021/12/22 06:10:25;;;;;;;12.90;7.80;;;0.40;25.40;;;;;;5061027;28;20408;-82
2021/12/22 06:12:53;;;;;;;8.75;5.70;;;0.70;24.80;;;;;;5044947;28;20202;-82
2021/12/22 06:15:22;;;;;;;9.00;6.82;;;0.50;25.10;;;;;;5064990;28;20197;-82
2021/12/22 06:17:54;;;;;;;12.20;7.63;;;0.50;25.30;;;;;;5070246;28;20513;-83
2021/12/22 06:20:24;;;;;;;7.90;7.03;;;0.50;25.20;;;;;;5062585;28;20233;-84
2021/12/22 06:22:53;;;;;;;7.88;5.57;;;0.50;24.40;;;;;;5061960;28;20212;-83
2021/12/22 06:25:23;;;;;;;11.82;8.15;;;0.50;24.30;;;;;;5061655;28;20324;-83
2021/12/22 06:27:52;;;;;;;17.88;8.65;;;0.50;25.70;;;;;;5048405;28;20208;-82
2021/12/22 06:30:21;;;;;;;14.20;7.78;;;0.50;22.60;;;;;;5078409;28;20717;-83
2021/12/22 06:32:50;;;;;;;12.38;6.50;;;0.50;29.70;;;;;;5043071;28;20202;-80
2021/12/22 06:35:18;;;;;;;11.95;7.18;;;0.80;34.20;;;;;;5052261;28;20202;-83
2021/12/22 06:37:47;;;;;;;14.48;8.07;;;0.80;36.20;;;;;;5055358;28;20860;-80
2021/12/22 06:40:16;;;;;;;14.25;9.40;;;0.80;37.80;;;;;;5069312;28;20223;-82
2021/12/22 06:42:45;;;;;;;16.33;9.07;;;1.20;40.50;;;;;;5071925;28;20212;-81
2021/12/22 06:45:15;;;;;;;14.48;8.10;;;0.90;42.80;;;;;;5061837;28;20290;-84
2021/12/22 06:47:43;;;;;;;13.90;7.80;;;1.20;43.50;;;;;;5066319;28;20209;-85
2021/12/22 06:50:13;;;;;;;14.75;8.90;;;1.00;43.60;;;;;;5067850;28;20514;-83
2021/12/22 06:52:41;;;;;;;8.48;7.57;;;1.30;45.50;;;;;;5075443;28;20213;-82
2021/12/22 06:55:10;;;;;;;14.23;8.38;;;1.00;44.80;;;;;;5058131;28;20205;-83
2021/12/22 06:57:38;;;;;;;13.13;8.02;;;1.00;43.00;;;;;;5052203;28;20217;-82
2021/12/22 07:00:11;;;;;;;11.50;7.15;;;1.10;42.50;;;;;;5079539;28;20683;-83
2021/12/22 07:02:39;;;;;;;13.05;8.30;;;1.00;43.20;;;;;;5057978;28;20219;-82
2021/12/22 07:05:10;;;;;;;12.63;8.10;;;1.40;45.20;;;;;;5059145;28;20215;-84
2021/12/22 07:07:39;;;;;;;13.98;8.85;;;1.10;44.90;;;;;;5046375;28;20775;-84
2021/12/22 07:10:11;;;;;;;9.02;6.70;;;1.10;43.90;;;;;;5065525;28;20764;-83
2021/12/22 07:12:41;;;;;;;9.85;7.50;;;1.40;44.50;;;;;;5061372;28;20205;-85
2021/12/22 07:15:13;;;;;;;16.63;11.13;;;1.30;43.10;;;;;;5063262;28;20449;-83
2021/12/22 07:17:41;;;;;;;21.00;10.40;;;1.20;44.90;;;;;;5075443;28;20262;-82
2021/12/22 07:20:12;;;;;;;21.80;11.23;;;1.10;58.10;;;;;;5063285;28;20223;-83
2021/12/22 07:22:40;;;;;;;18.95;10.27;;;1.10;45.90;;;;;;5068487;28;20229;-82
2021/12/22 07:25:12;;;;;;;22.42;11.35;;;1.20;45.10;;;;;;5068422;28;20215;-84
2021/12/22 07:27:40;;;;;;;15.63;9.00;;;1.20;44.50;;;;;;5058857;28;20224;-83
2021/12/22 07:30:11;;;;;;;12.25;7.65;;;1.40;47.30;;;;;;5066941;28;20223;-82
2021/12/22 07:32:40;;;;;;;18.58;9.55;;;1.30;46.40;;;;;;5070164;28;20869;-84
2021/12/22 07:35:11;;;;;;;14.30;8.95;;;1.40;60.80;;;;;;5068262;28;20211;-82
2021/12/22 07:37:48;;;;;;;10.32;7.95;;;1.40;46.20;;;;;;5058730;28;20264;-83
2021/12/22 07:40:19;;;;;;;18.48;8.52;;;1.40;36.90;;;;;;5065258;28;20373;-83
2021/12/22 07:42:47;;;;;;;16.67;8.85;;;1.10;36.70;;;;;;5069990;28;20540;-82
2021/12/22 07:45:17;;;;;;;15.50;7.88;;;1.30;39.30;;;;;;5070043;28;20204;-83
2021/12/22 07:47:45;;;;;;;14.77;9.48;;;1.10;38.80;;;;;;5069940;28;20698;-84
2021/12/22 07:50:14;;;;;;;16.38;8.88;;;1.00;38.00;;;;;;5069378;28;20602;-83
2021/12/22 07:52:42;;;;;;;13.00;8.80;;;1.10;41.70;;;;;;5062433;28;20959;-83
2021/12/22 07:55:10;;;;;;;16.75;9.55;;;1.10;43.10;;;;;;5067150;28;20444;-82
2021/12/22 07:57:39;;;;;;;21.98;9.48;;;1.10;42.40;;;;;;5067940;28;20203;-83
2021/12/22 08:00:08;;;;;;;9.90;6.95;;;1.10;45.10;;;;;;5062071;28;20315;-82
2021/12/22 08:02:38;;;;;;;16.30;9.77;;;1.20;43.30;;;;;;5069768;28;20459;-81
2021/12/22 08:05:07;;;;;;;16.73;8.73;;;1.20;44.60;;;;;;5064843;28;20224;-84
2021/12/22 08:07:35;;;;;;;14.38;7.97;;;1.30;45.10;;;;;;5069434;28;20360;-82
2021/12/22 08:10:06;;;;;;;8.23;6.57;;;1.30;46.10;;;;;;5070377;28;20228;-84
2021/12/22 08:12:34;;;;;;;13.45;7.55;;;1.40;46.70;;;;;;5070482;28;20209;-82
2021/12/22 08:15:03;;;;;;;10.38;6.82;;;1.50;49.10;;;;;;5051672;28;20634;-79
2021/12/22 08:17:32;;;;;;;16.05;8.80;;;1.50;43.90;;;;;;5070387;28;20202;-84
2021/12/22 08:20:04;;;;;;;10.35;6.80;;;1.50;47.80;;;;;;5069733;28;20231;-84
2021/12/22 08:22:35;;;;;;;11.38;7.20;;;1.50;46.50;;;;;;5070407;28;20203;-82
2021/12/22 08:25:06;;;;;;;10.65;6.90;;;1.50;49.10;;;;;;5052135;28;20203;-81
2021/12/22 08:27:35;;;;;;;13.95;9.40;;;1.60;47.90;;;;;;5050117;28;20747;-82
2021/12/22 08:30:08;;;;;;;11.50;7.22;;;1.70;49.70;;;;;;5069259;28;20226;-83
2021/12/22 08:32:36;;;;;;;15.40;9.43;;;1.80;50.80;;;;;;5069436;28;20817;-82
2021/12/22 08:35:08;;;;;;;17.60;10.00;;;1.70;50.60;;;;;;5049770;28;20742;-83
2021/12/22 08:40:24;;;;;;;13.60;8.30;;;1.80;50.50;;;;;;5066183;28;20603;-81
2021/12/22 08:42:53;;;;;;;14.02;8.65;;;1.90;52.50;;;;;;5068579;28;20610;-83
2021/12/22 08:45:22;;;;;;;13.23;7.68;;;2.00;52.30;;;;;;5046083;28;20201;-82
2021/12/22 08:47:50;;;;;;;14.93;9.15;;;2.10;53.50;;;;;;5070769;28;20208;-80
2021/12/22 08:50:27;;;;;;;14.80;7.40;;;2.10;55.90;;;;;;5064253;28;20226;-84
2021/12/22 08:52:56;;;;;;;14.20;7.38;;;2.10;53.70;;;;;;5067776;28;20218;-84
2021/12/22 08:55:25;;;;;;;11.85;7.50;;;2.10;68.10;;;;;;5079151;28;20214;-83
2021/12/22 08:57:53;;;;;;;12.68;6.70;;;2.10;52.30;;;;;;5060365;28;20208;-83
2021/12/22 09:00:21;;;;;;;8.82;6.53;;;2.10;53.50;;;;;;5060572;28;20681;-83
2021/12/22 09:02:49;;;;;;;10.77;6.55;;;2.10;49.90;;;;;;5074309;28;20217;-84
2021/12/22 09:05:19;;;;;;;7.75;4.85;;;2.10;51.70;;;;;;5050523;28;20214;-82
2021/12/22 09:07:49;;;;;;;11.95;6.32;;;1.80;50.10;;;;;;5071823;28;20223;-83
2021/12/22 09:10:17;;;;;;;11.88;6.90;;;1.70;52.60;;;;;;5068392;28;20230;-82
2021/12/22 09:12:46;;;;;;;10.35;6.35;;;1.60;50.80;;;;;;5066534;28;20974;-84
2021/12/22 09:15:17;;;;;;;8.93;6.32;;;1.70;56.80;;;;;;5069197;28;20626;-83
2021/12/22 09:17:45;;;;;;;12.63;7.40;;;2.00;55.60;;;;;;5063775;28;20253;-84
2021/12/22 09:20:13;;;;;;;8.13;6.07;;;2.00;56.80;;;;;;5071521;28;21107;-81
2021/12/22 09:22:42;;;;;;;10.13;7.18;;;2.10;57.50;;;;;;5069934;28;20624;-81
2021/12/22 09:25:13;;;;;;;10.75;6.53;;;2.20;59.20;;;;;;5042913;28;20203;-84
2021/12/22 09:27:42;;;;;;;11.43;6.60;;;2.40;60.30;;;;;;5056608;28;20239;-82
2021/12/22 09:30:11;;;;;;;11.25;6.97;;;2.30;63.90;;;;;;5055564;28;20227;-85
2021/12/22 09:32:40;;;;;;;12.40;6.63;;;2.10;55.60;;;;;;5064922;28;20269;-81
2021/12/22 09:35:09;;;;;;;13.75;6.40;;;1.50;53.30;;;;;;5060945;28;20207;-84
2021/12/22 09:37:37;;;;;;;14.98;6.97;;;1.40;55.70;;;;;;5064415;28;20221;-83
2021/12/22 09:40:07;;;;;;;14.48;7.40;;;1.50;58.00;;;;;;5065082;28;20226;-85
2021/12/22 09:42:36;;;;;;;13.75;7.10;;;1.40;57.00;;;;;;5046220;28;20229;-82
2021/12/22 09:45:06;;;;;;;11.13;6.68;;;1.90;59.70;;;;;;5046884;28;20260;-82
2021/12/22 09:47:49;;;;;;;9.38;6.03;;;1.70;54.10;;;;;;5073988;28;20702;-81
2021/12/22 09:50:34;;;;;;;11.88;6.53;;;2.00;60.10;;;;;;5069038;28;20338;-84
2021/12/22 09:53:03;;;;;;;9.45;5.65;;;2.10;56.90;;;;;;5070282;28;20717;-84
2021/12/22 09:55:34;;;;;;;8.40;5.60;;;2.10;52.30;;;;;;5065246;28;20685;-81
2021/12/22 09:58:05;;;;;;;12.55;6.97;;;2.20;56.00;;;;;;5058836;28;20255;-83
2021/12/22 10:00:35;;;;;;;11.20;5.88;;;2.60;59.60;;;;;;5038579;28;20278;-83
2021/12/22 10:03:05;;;;;;;11.45;7.35;;;3.00;61.90;;;;;;5060728;28;20195;-83
2021/12/22 10:05:34;;;;;;;9.52;6.80;;;3.30;60.40;;;;;;5056226;28;20214;-84
2021/12/22 10:08:07;;;;;;;10.50;7.10;;;3.60;62.80;;;;;;5055454;28;20204;-83
2021/12/22 10:10:37;;;;;;;10.27;5.65;;;4.00;59.20;;;;;;5055854;28;20262;-84
2021/12/22 10:13:08;;;;;;;11.88;7.50;;;4.00;58.30;;;;;;5037061;28;20450;-85
2021/12/22 10:15:37;;;;;;;13.23;7.50;;;3.90;56.00;;;;;;5037400;28;20460;-86
2021/12/22 10:18:10;;;;;;;10.68;6.88;;;3.90;57.00;;;;;;5057302;28;20484;-85
2021/12/22 10:20:39;;;;;;;10.23;7.03;;;4.00;54.70;;;;;;5035482;28;20223;-87
2021/12/22 10:23:22;;;;;;;10.60;6.00;;;4.30;58.50;;;;;;5054979;28;20196;-89
2021/12/22 10:25:52;;;;;;;9.55;5.60;;;4.90;62.20;;;;;;5057262;28;20202;-84
2021/12/22 10:28:23;;;;;;;11.20;6.32;;;5.00;59.50;;;;;;5055715;28;20205;-82
2021/12/22 10:30:56;;;;;;;10.63;6.53;;;4.80;69.40;;;;;;5055592;28;20667;-83
2021/12/22 10:33:27;;;;;;;7.97;6.18;;;4.80;55.70;;;;;;5057364;28;20460;-86
2021/12/22 10:36:00;;;;;;;9.68;6.25;;;5.00;54.90;;;;;;5055361;28;20212;-80
2021/12/22 10:38:31;;;;;;;9.20;6.30;;;5.00;53.50;;;;;;5056497;28;20203;-85
2021/12/22 10:41:03;;;;;;;13.10;8.20;;;5.20;55.30;;;;;;5052067;28;20459;-85
2021/12/22 10:43:35;;;;;;;10.00;6.63;;;5.40;56.00;;;;;;5055191;28;20451;-87
2021/12/22 10:46:05;;;;;;;7.97;6.10;;;5.40;54.50;;;;;;5072166;28;20455;-86
2021/12/22 10:51:27;;;;;;;8.70;6.05;;;5.60;58.30;;;;;;5054634;28;20476;-85
2021/12/22 10:53:56;;;;;;;12.23;6.90;;;5.70;55.10;;;;;;5061263;28;20267;-85
2021/12/22 10:56:28;;;;;;;7.67;5.23;;;5.80;55.50;;;;;;5047091;28;20455;-85
2021/12/22 10:59:03;;;;;;;8.13;5.72;;;6.00;57.50;;;;;;5062301;28;20490;-85
2021/12/22 11:01:35;;;;;;;9.60;6.07;;;6.20;59.90;;;;;;5039140;28;20216;-85
2021/12/22 11:04:14;;;;;;;7.53;5.68;;;6.30;61.70;;;;;;5048372;28;20503;-85
2021/12/22 11:06:42;;;;;;;11.27;5.87;;;6.40;61.80;;;;;;5044254;28;20208;-86
2021/12/22 11:09:15;;;;;;;11.55;5.85;;;6.50;60.50;;;;;;5064546;28;20446;-85
2021/12/22 11:11:45;;;;;;;6.88;5.53;;;7.00;57.90;;;;;;5064461;28;20497;-85
2021/12/22 11:14:19;;;;;;;9.33;5.27;;;6.70;56.10;;;;;;5066121;28;20236;-86
2021/12/22 11:16:59;;;;;;;9.60;5.70;;;6.70;55.30;;;;;;5057911;28;20948;-85
2021/12/22 11:19:30;;;;;;;12.20;5.97;;;6.70;56.40;;;;;;5059739;28;20458;-86
2021/12/22 11:22:04;;;;;;;8.03;5.73;;;6.70;52.50;;;;;;5049293;28;20468;-87
2021/12/22 11:24:36;;;;;;;8.17;6.70;;;6.50;48.00;;;;;;5069527;28;20449;-86
2021/12/22 11:27:07;;;;;;;7.30;5.40;;;6.70;49.20;;;;;;5046808;28;20509;-86
2021/12/22 11:29:39;;;;;;;8.90;6.13;;;6.40;48.70;;;;;;5061535;28;20592;-85
2021/12/22 11:32:10;;;;;;;10.05;6.85;;;6.40;47.60;;;;;;5065505;28;20454;-86
2021/12/22 11:34:39;;;;;;;7.47;4.90;;;6.40;49.00;;;;;;5044402;28;20212;-84
2021/12/22 11:37:10;;;;;;;10.23;5.80;;;6.40;47.40;;;;;;5060877;28;20463;-84
2021/12/22 11:39:39;;;;;;;9.90;5.97;;;6.20;44.20;;;;;;5069332;28;20469;-83
2021/12/22 11:42:09;;;;;;;9.10;5.20;;;6.20;46.60;;;;;;5056017;28;20443;-85
2021/12/22 11:44:39;;;;;;;7.85;5.65;;;6.00;40.80;;;;;;5061050;28;20984;-84
2021/12/22 11:47:11;;;;;;;10.13;5.50;;;5.80;39.80;;;;;;5053932;28;20723;-85
2021/12/22 11:49:55;;;;;;;8.00;5.43;;;5.70;40.40;;;;;;5063190;28;20335;-84
2021/12/22 11:52:36;;;;;;;9.90;6.53;;;5.70;42.30;;;;;;5059751;28;20212;-85
2021/12/22 11:55:11;;;;;;;7.25;5.32;;;6.00;45.00;;;;;;5061042;28;20230;-85
2021/12/22 11:57:39;;;;;;;14.83;6.30;;;6.20;44.70;;;;;;5062643;28;20203;-86
2021/12/22 12:00:24;;;;;;;8.70;6.23;;;6.20;47.00;;;;;;5057430;28;20473;-84
2021/12/22 12:02:54;;;;;;;8.48;6.22;;;6.20;48.70;;;;;;5060201;28;20450;-84
2021/12/22 12:05:24;;;;;;;7.65;5.82;;;6.30;53.70;;;;;;5052099;28;20296;-84
2021/12/22 12:07:54;;;;;;;10.88;7.25;;;6.20;50.40;;;;;;5064126;28;20446;-85
2021/12/22 12:10:48;;;;;;;8.10;5.20;;;6.20;47.60;;;;;;5065233;28;20219;-84
2021/12/22 12:13:48;;;;;;;11.10;6.65;;;6.30;49.10;;;;;;5054775;28;20434;-84
2021/12/22 12:22:33;;;;;;;10.67;6.40;;;6.40;49.70;;;;;;5056739;28;20456;-84
2021/12/22 12:25:10;;;;;;;9.43;6.07;;;6.50;48.80;;;;;;5059223;28;21012;-86
2021/12/22 12:27:49;;;;;;;9.25;6.45;;;6.40;47.40;;;;;;5068692;28;20208;-83
2021/12/22 12:30:43;;;;;;;11.10;5.33;;;6.50;49.30;;;;;;5066634;28;20413;-85
2021/12/22 12:33:25;;;;;;;8.63;6.23;;;6.60;50.20;;;;;;5058754;28;20483;-84
2021/12/22 12:36:02;;;;;;;10.02;6.55;;;6.50;47.90;;;;;;5060448;28;20493;-84
2021/12/22 12:38:44;;;;;;;9.33;5.53;;;6.60;48.00;;;;;;5053645;28;20315;-83
2021/12/22 12:41:25;;;;;;;7.50;5.17;;;6.50;45.70;;;;;;5060291;28;20565;-86
2021/12/22 12:44:10;;;;;;;7.45;5.50;;;6.30;44.70;;;;;;5056588;28;20455;-86
2021/12/22 12:46:49;;;;;;;9.60;6.57;;;6.30;45.10;;;;;;5061491;28;20458;-83
2021/12/22 12:49:43;;;;;;;6.40;5.72;;;6.20;43.10;;;;;;5060332;28;20621;-85
2021/12/22 12:52:26;;;;;;;10.05;5.80;;;6.10;43.70;;;;;;5064466;28;20234;-83
2021/12/22 12:55:13;;;;;;;7.30;4.85;;;6.10;43.10;;;;;;5064532;28;20196;-84
2021/12/22 12:57:41;;;;;;;8.35;5.90;;;5.90;40.10;;;;;;5061624;28;20890;-84
2021/12/22 13:00:27;;;;;;;8.13;5.75;;;6.10;46.00;;;;;;5087803;28;20246;-84
2021/12/22 13:03:02;;;;;;;8.43;5.75;;;6.30;46.40;;;;;;5073542;28;20212;-88
2021/12/22 13:05:32;;;;;;;5.90;4.80;;;6.20;42.80;;;;;;5065364;28;20188;-85
2021/12/22 13:08:08;;;;;;;9.77;5.40;;;6.30;46.40;;;;;;5066844;28;20455;-85
2021/12/22 13:10:39;;;;;;;6.90;4.83;;;6.40;47.00;;;;;;5050353;28;20228;-84
2021/12/22 13:13:18;;;;;;;11.45;6.05;;;6.60;47.30;;;;;;5066514;28;20477;-85
2021/12/22 13:15:46;;;;;;;9.00;5.25;;;6.40;48.30;;;;;;5044855;28;20200;-84
2021/12/22 13:18:20;;;;;;;11.70;6.05;;;6.40;46.50;;;;;;5062129;28;20478;-84
2021/12/22 13:20:50;;;;;;;9.02;5.75;;;6.00;42.50;;;;;;5072724;28;20572;-82
2021/12/22 13:23:22;;;;;;;7.88;5.35;;;5.70;39.80;;;;;;5065450;28;20215;-86
2021/12/22 13:25:52;;;;;;;8.90;5.97;;;5.70;40.50;;;;;;5056649;28;20291;-83